createdAt,value
2023-03-03T00:01:00.868Z,96295.45
2023-03-03T00:03:30.874Z,96301.70
2023-03-03T00:06:00.792Z,96303.31
2023-03-03T00:08:30.635Z,96314.75
2023-03-03T00:11:02.154Z,96326.45
2023-03-03T00:13:33.026Z,96347.72
2023-03-03T00:16:14.820Z,96354.52
2023-03-03T00:18:46.344Z,96343.09
2023-03-03T00:21:28.912Z,96329.50
2023-03-03T00:24:02.366Z,96351.27
2023-03-03T00:26:35.256Z,96376.86
2023-03-03T00:36:23.296Z,96373.84
2023-03-03T00:38:54.239Z,96352.38
2023-03-03T00:41:32.595Z,96335.50
2023-03-03T00:44:03.954Z,96321.89
2023-03-03T00:46:33.994Z,96312.06
2023-03-03T00:49:06.212Z,96297.91
2023-03-03T00:51:36.592Z,96308.53
2023-03-03T00:54:13.867Z,96327.83
2023-03-03T00:56:43.743Z,96336.53
2023-03-03T00:59:13.978Z,96338.18
2023-03-03T01:01:46.574Z,96324.83
2023-03-03T01:04:18.063Z,96294.89
2023-03-03T01:06:48.521Z,96272.30
2023-03-03T01:09:28.715Z,96256.77
2023-03-03T01:11:58.682Z,96218.91
2023-03-03T01:14:35.638Z,96211.28
2023-03-03T01:17:05.910Z,96219.18
2023-03-03T01:20:35.368Z,96221.34
2023-03-03T01:23:11.893Z,96227.61
2023-03-03T01:25:41.842Z,96246.67
2023-03-03T01:28:11.716Z,96257.55
2023-03-03T01:30:41.618Z,96272.25
2023-03-03T01:33:12.941Z,96276.34
2023-03-03T01:35:47.062Z,96285.02
2023-03-03T01:38:16.585Z,96275.50
2023-03-03T01:40:47.907Z,96286.39
2023-03-03T01:43:18.255Z,96305.44
2023-03-03T01:45:51.760Z,96323.43
2023-03-03T01:54:42.630Z,96377.88
2023-03-03T01:57:15.302Z,96388.76
2023-03-03T02:00:05.598Z,96367.55
2023-03-03T02:02:50.301Z,96359.09
2023-03-03T02:05:22.369Z,96349.86
2023-03-03T02:08:01.471Z,96337.08
2023-03-03T02:10:31.623Z,96351.48
2023-03-03T02:13:01.662Z,96358.55
2023-03-03T02:15:37.327Z,96336.27
2023-03-03T02:18:09.404Z,96329.17
2023-03-03T02:20:44.002Z,96344.44
2023-03-03T02:23:38.227Z,96309.06
2023-03-03T02:26:21.583Z,96284.84
2023-03-03T02:28:51.429Z,96284.03
2023-03-03T02:31:23.217Z,96245.95
2023-03-03T02:34:01.430Z,96240.00
2023-03-03T02:36:33.445Z,96190.80
2023-03-03T02:39:12.389Z,96181.74
2023-03-03T02:42:03.308Z,96140.09
2023-03-03T02:44:35.680Z,96107.44
2023-03-03T02:47:07.601Z,96050.58
2023-03-03T02:49:38.306Z,96007.59
2023-03-03T02:52:12.352Z,96043.75
2023-03-03T02:54:49.702Z,96096.81
2023-03-03T02:57:19.729Z,96092.43
2023-03-03T02:59:49.578Z,96078.25
2023-03-03T03:02:21.012Z,96091.58
2023-03-03T03:04:50.962Z,96100.02
2023-03-03T03:07:25.238Z,96094.55
2023-03-03T03:10:25.490Z,96070.06
2023-03-03T03:12:56.875Z,96016.99
2023-03-03T03:15:27.818Z,95985.17
2023-03-03T03:17:57.913Z,96019.46
2023-03-03T03:20:29.286Z,96067.09
2023-03-03T03:23:01.633Z,96027.07
2023-03-03T03:25:31.589Z,96019.71
2023-03-03T03:28:01.541Z,96130.77
2023-03-03T03:30:31.763Z,96163.70
2023-03-03T03:33:01.982Z,96107.10
2023-03-03T03:35:34.911Z,96079.47
2023-03-03T03:38:04.953Z,96098.94
2023-03-03T03:40:37.844Z,96127.53
2023-03-03T03:43:20.707Z,96113.37
2023-03-03T03:45:51.020Z,96029.32
2023-03-03T03:48:21.572Z,96041.26
2023-03-03T03:50:51.693Z,96033.92
2023-03-03T03:53:21.938Z,96054.08
2023-03-03T03:56:12.885Z,96037.23
2023-03-03T03:58:44.022Z,96017.38
2023-03-03T04:01:17.046Z,96020.09
2023-03-03T04:03:47.923Z,96004.34
2023-03-03T04:06:38.374Z,96014.42
2023-03-03T04:09:11.673Z,96032.66
2023-03-03T04:11:41.798Z,96036.19
2023-03-03T04:14:14.736Z,96026.94
2023-03-03T04:16:46.391Z,96035.11
2023-03-03T04:19:16.343Z,96004.39
2023-03-03T04:21:46.372Z,95966.06
2023-03-03T04:24:16.383Z,95993.27
2023-03-03T04:26:49.136Z,96005.23
2023-03-03T04:29:19.256Z,96009.05
2023-03-03T04:31:49.230Z,96004.45
2023-03-03T04:34:19.200Z,96034.67
2023-03-03T04:36:51.271Z,96083.36
2023-03-03T04:39:21.829Z,96116.83
2023-03-03T04:41:52.067Z,96148.66
2023-03-03T04:44:23.614Z,96175.86
2023-03-03T04:46:56.953Z,96174.80
2023-03-03T04:49:29.941Z,96183.78
2023-03-03T04:52:05.008Z,96192.22
2023-03-03T04:54:35.247Z,96199.87
2023-03-03T04:57:05.149Z,96174.28
2023-03-03T04:59:35.067Z,96150.63
2023-03-03T05:02:06.188Z,96122.64
2023-03-03T05:04:36.324Z,96082.94
2023-03-03T05:07:07.184Z,96063.62
2023-03-03T05:09:39.262Z,96047.60
2023-03-03T05:12:10.209Z,96019.88
2023-03-03T05:14:43.399Z,95988.38
2023-03-03T05:17:16.703Z,95964.70
2023-03-03T05:19:48.197Z,95973.13
2023-03-03T05:22:20.754Z,96007.13
2023-03-03T05:24:51.377Z,96021.30
2023-03-03T05:27:25.657Z,96028.95
2023-03-03T05:29:56.402Z,96059.38
2023-03-03T05:32:28.862Z,96067.05
2023-03-03T05:35:03.557Z,96074.11
2023-03-03T05:37:35.573Z,96076.28
2023-03-03T05:40:06.307Z,96076.83
2023-03-03T05:42:42.544Z,96085.81
2023-03-03T05:45:18.127Z,96065.97
2023-03-03T05:47:49.573Z,96083.41
2023-03-03T05:50:20.084Z,96138.34
2023-03-03T05:52:54.108Z,96178.82
2023-03-03T05:55:25.641Z,96163.08
2023-03-03T05:57:57.954Z,96146.77
2023-03-03T06:00:29.213Z,96152.50
2023-03-03T06:03:03.254Z,96156.60
2023-03-03T06:05:35.078Z,96140.56
2023-03-03T06:08:05.889Z,96127.53
2023-03-03T06:10:39.888Z,96140.31
2023-03-03T06:13:14.052Z,96154.47
2023-03-03T06:15:43.441Z,96156.08
2023-03-03T06:18:21.731Z,96149.59
2023-03-03T06:20:57.014Z,96147.95
2023-03-03T06:23:29.478Z,96161.83
2023-03-03T06:26:04.805Z,96140.62
2023-03-03T06:28:35.486Z,96114.00
2023-03-03T06:31:09.092Z,96081.14
2023-03-03T06:33:42.458Z,96068.37
2023-03-03T06:36:14.812Z,96065.67
2023-03-03T06:38:46.774Z,96103.45
2023-03-03T06:41:17.391Z,96104.01
2023-03-03T06:43:47.375Z,96110.27
2023-03-03T06:46:18.816Z,96116.25
2023-03-03T06:48:51.761Z,96120.87
2023-03-03T06:51:37.209Z,96125.77
2023-03-03T06:54:19.631Z,96161.64
2023-03-03T06:56:52.170Z,96176.04
2023-03-03T06:59:22.999Z,96174.95
2023-03-03T07:02:06.814Z,96160.02
2023-03-03T07:04:37.289Z,96159.75
2023-03-03T07:07:23.090Z,96170.05
2023-03-03T07:09:55.994Z,96174.93
2023-03-03T07:12:31.466Z,96182.02
2023-03-03T07:15:18.106Z,96162.75
2023-03-03T07:17:51.267Z,96140.47
2023-03-03T07:20:26.733Z,96116.29
2023-03-03T07:22:57.752Z,96106.24
2023-03-03T07:25:33.027Z,96107.34
2023-03-03T07:28:16.856Z,96105.98
2023-03-03T07:30:50.158Z,96090.25
2023-03-03T07:33:39.761Z,96060.92
2023-03-03T07:36:12.537Z,96024.27
2023-03-03T07:38:46.765Z,95948.50
2023-03-03T07:41:24.831Z,95917.90
2023-03-03T07:43:56.925Z,95944.73
2023-03-03T07:46:49.138Z,95911.38
2023-03-03T07:49:37.886Z,95930.10
2023-03-03T07:55:02.304Z,95907.84
2023-03-03T07:57:41.309Z,95878.27
2023-03-03T08:00:41.995Z,95901.07
2023-03-03T08:03:22.184Z,95907.91
2023-03-03T08:08:45.310Z,95944.27
2023-03-03T08:11:17.733Z,96006.45
2023-03-03T08:13:47.702Z,96047.17
2023-03-03T08:16:20.418Z,96057.48
2023-03-03T08:18:51.264Z,96076.75
2023-03-03T08:21:22.651Z,96130.78
2023-03-03T08:23:53.977Z,96138.13
2023-03-03T08:26:24.726Z,96122.94
2023-03-03T08:28:56.377Z,96107.47
2023-03-03T08:31:40.361Z,96120.48
2023-03-03T08:33:59.751Z,96113.16
2023-03-03T08:36:50.674Z,96107.73
2023-03-03T08:39:20.756Z,96087.92
2023-03-03T08:41:51.403Z,96058.37
2023-03-03T08:44:50.812Z,96074.36
2023-03-03T08:50:17.723Z,96090.09
2023-03-03T08:53:08.826Z,96078.44
2023-03-03T08:55:38.826Z,96078.19
2023-03-03T08:58:09.375Z,96073.83
2023-03-03T09:00:39.287Z,96065.17
2023-03-03T09:03:09.180Z,96072.50
2023-03-03T09:05:39.558Z,96075.48
2023-03-03T09:08:09.616Z,96082.01
2023-03-03T09:10:42.304Z,96080.91
2023-03-03T09:13:21.177Z,96076.84
2023-03-03T09:16:11.938Z,96077.95
2023-03-03T09:18:41.863Z,96085.53
2023-03-03T09:24:46.291Z,96087.44
2023-03-03T09:40:34.969Z,96100.20
2023-03-03T09:46:47.022Z,96110.52
2023-03-03T09:49:44.580Z,96122.14
2023-03-03T09:52:49.940Z,96123.79
2023-03-03T09:55:54.423Z,96126.50
2023-03-03T09:58:40.102Z,96135.70
2023-03-03T10:01:44.162Z,96140.32
2023-03-03T10:04:38.680Z,96141.96
2023-03-03T10:07:24.234Z,96166.38
2023-03-03T10:10:01.446Z,96174.51
2023-03-03T10:12:45.111Z,96184.80
2023-03-03T10:15:23.729Z,96191.59
2023-03-03T10:18:02.357Z,96185.06
2023-03-03T10:20:49.414Z,96189.68
2023-03-03T10:23:36.993Z,96201.07
2023-03-03T10:26:45.268Z,96211.66
2023-03-03T10:29:38.350Z,96200.25
2023-03-03T10:32:12.659Z,96202.97
2023-03-03T10:34:48.894Z,96203.51
2023-03-03T10:37:28.162Z,96204.05
2023-03-03T10:40:13.920Z,96209.73
2023-03-03T10:43:04.000Z,96214.34
2023-03-03T10:45:54.696Z,96214.34
2023-03-03T10:48:46.293Z,96224.93
2023-03-03T10:51:34.938Z,96223.83
2023-03-03T10:54:10.549Z,96218.40
2023-03-03T10:56:57.821Z,96214.07
2023-03-03T10:59:54.237Z,96218.69
2023-03-03T11:02:39.889Z,96228.16
2023-03-03T11:05:22.996Z,96230.33
2023-03-03T11:07:58.990Z,96231.14
2023-03-03T11:10:34.876Z,96228.16
2023-03-03T11:13:16.726Z,96234.42
2023-03-03T11:16:16.192Z,96245.25
2023-03-03T11:19:02.532Z,96249.62
2023-03-03T11:21:47.024Z,96260.48
2023-03-03T11:24:25.483Z,96264.81
2023-03-03T11:27:07.440Z,96264.81
2023-03-03T11:30:10.362Z,96271.61
2023-03-03T11:32:58.061Z,96268.36
2023-03-03T11:35:40.314Z,96274.05
2023-03-03T11:38:44.419Z,96283.33
2023-03-03T11:41:28.939Z,96274.11
2023-03-03T11:44:14.225Z,96280.09
2023-03-03T11:46:56.042Z,96267.05
2023-03-03T11:49:47.252Z,96256.49
2023-03-03T11:52:31.860Z,96237.50
2023-03-03T11:55:07.649Z,96237.20
2023-03-03T11:58:04.939Z,96235.85
2023-03-03T12:00:47.340Z,96250.52
2023-03-03T12:03:36.719Z,96238.28
2023-03-03T12:06:28.952Z,96239.92
2023-03-03T12:09:23.047Z,96241.54
2023-03-03T12:11:58.811Z,96248.88
2023-03-03T12:14:51.744Z,96265.97
2023-03-03T12:17:30.180Z,96264.32
2023-03-03T12:20:11.831Z,96262.41
2023-03-03T12:23:07.022Z,96262.15
2023-03-03T12:25:35.221Z,96262.95
2023-03-03T12:28:21.549Z,96261.33
2023-03-03T12:31:27.151Z,96265.40
2023-03-03T12:34:02.815Z,96264.03
2023-03-03T12:36:45.156Z,96268.39
2023-03-03T12:39:34.741Z,96278.96
2023-03-03T12:42:10.494Z,96282.77
2023-03-03T12:45:23.598Z,96280.56
2023-03-03T12:47:58.622Z,96294.44
2023-03-03T12:50:34.557Z,96291.41
2023-03-03T12:53:22.147Z,96296.58
2023-03-03T12:56:06.670Z,96311.52
2023-03-03T12:58:57.195Z,96315.56
2023-03-03T13:02:04.560Z,96326.72
2023-03-03T13:04:46.297Z,96324.55
2023-03-03T13:07:21.662Z,96323.14
2023-03-03T13:10:00.158Z,96346.80
2023-03-03T13:12:55.640Z,96346.80
2023-03-03T13:15:32.506Z,96349.80
2023-03-03T13:18:14.527Z,96347.04
2023-03-03T13:20:49.900Z,96359.01
2023-03-03T13:23:22.580Z,96357.91
2023-03-03T13:25:57.668Z,96365.25
2023-03-03T13:28:42.655Z,96368.52
2023-03-03T13:31:18.468Z,96379.94
2023-03-03T13:33:56.803Z,96376.39
2023-03-03T13:36:38.052Z,96394.07
2023-03-03T13:39:29.839Z,96405.50
2023-03-03T13:42:04.943Z,96414.20
2023-03-03T13:44:42.406Z,96434.86
2023-03-03T13:47:17.851Z,96442.20
2023-03-03T13:49:53.685Z,96434.84
2023-03-03T13:52:28.804Z,96432.39
2023-03-03T13:55:07.932Z,96437.30
2023-03-03T13:57:43.411Z,96449.25
2023-03-03T14:00:30.693Z,96441.64
2023-03-03T14:03:09.507Z,96437.81
2023-03-03T14:05:47.402Z,96426.13
2023-03-03T14:08:35.170Z,96438.10
2023-03-03T14:11:37.083Z,96453.32
2023-03-03T14:14:18.993Z,96440.85
2023-03-03T14:17:00.199Z,96473.47
2023-03-03T14:19:48.904Z,96484.06
2023-03-03T14:22:30.254Z,96482.45
2023-03-03T14:25:10.981Z,96487.08
2023-03-03T14:27:52.498Z,96486.79
2023-03-03T14:30:31.022Z,96487.34
2023-03-03T14:33:12.435Z,96489.51
2023-03-03T14:36:03.395Z,96503.66
2023-03-03T14:38:39.007Z,96532.78
2023-03-03T14:41:17.293Z,96543.13
2023-03-03T14:43:57.036Z,96549.38
2023-03-03T14:46:35.960Z,96544.77
2023-03-03T14:49:21.816Z,96548.85
2023-03-03T14:51:53.224Z,96554.00
2023-03-03T14:54:30.822Z,96556.47
2023-03-03T14:57:02.662Z,96546.39
2023-03-03T14:59:33.172Z,96546.13
2023-03-03T15:02:24.217Z,96554.01
2023-03-03T15:04:54.567Z,96562.72
2023-03-03T15:07:38.438Z,96560.55
2023-03-03T15:10:08.641Z,96558.93
2023-03-03T15:12:38.979Z,96573.05
2023-03-03T15:15:20.433Z,96575.52
2023-03-03T15:17:55.821Z,96580.41
2023-03-03T15:20:30.186Z,96581.77
2023-03-03T15:23:18.443Z,96573.05
2023-03-03T15:25:56.043Z,96579.85
2023-03-03T15:28:43.600Z,96587.20
2023-03-03T15:31:38.742Z,96586.10
2023-03-03T15:34:26.045Z,96582.86
2023-03-03T15:37:30.757Z,96586.10
2023-03-03T15:40:06.494Z,96578.48
2023-03-03T15:42:45.151Z,96572.23
2023-03-03T15:45:35.689Z,96573.86
2023-03-03T15:48:23.397Z,96573.59
2023-03-03T15:51:15.639Z,96573.30
2023-03-03T15:54:03.501Z,96574.95
2023-03-03T15:59:48.596Z,96591.54
2023-03-03T16:02:43.248Z,96592.35
2023-03-03T16:05:16.242Z,96592.35
2023-03-03T16:07:54.573Z,96592.64
2023-03-03T16:10:36.143Z,96586.36
2023-03-03T16:13:31.240Z,96592.34
2023-03-03T16:16:26.544Z,96579.84
2023-03-03T16:19:02.670Z,96601.87
2023-03-03T16:21:54.442Z,96600.80
2023-03-03T16:24:27.505Z,96599.96
2023-03-03T16:27:13.105Z,96605.14
2023-03-03T16:30:09.814Z,96607.05
2023-03-03T16:32:45.150Z,96611.39
2023-03-03T16:35:29.139Z,96616.29
2023-03-03T16:38:01.661Z,96617.94
2023-03-03T16:40:48.981Z,96634.83
2023-03-03T16:43:43.300Z,96634.27
2023-03-03T16:46:32.125Z,96636.99
2023-03-03T16:49:22.662Z,96633.46
2023-03-03T16:52:11.561Z,96641.63
2023-03-03T16:54:46.879Z,96643.51
2023-03-03T16:57:25.879Z,96644.87
2023-03-03T17:00:04.942Z,96650.86
2023-03-03T17:02:52.938Z,96654.39
2023-03-03T17:05:32.038Z,96656.05
2023-03-03T17:08:25.699Z,96672.38
2023-03-03T17:11:36.016Z,96682.70
2023-03-03T17:14:12.717Z,96689.80
2023-03-03T17:17:01.575Z,96712.09
2023-03-03T17:19:53.221Z,96719.99
2023-03-03T17:22:37.331Z,96722.16
2023-03-03T17:25:15.799Z,96724.33
2023-03-03T17:27:57.702Z,96728.96
2023-03-03T17:30:30.472Z,96729.77
2023-03-03T17:33:16.111Z,96728.70
2023-03-03T17:36:03.666Z,96721.89
2023-03-03T17:38:50.945Z,96738.48
2023-03-03T17:41:31.562Z,96725.97
2023-03-03T17:44:25.147Z,96739.03
2023-03-03T17:47:09.025Z,96728.14
2023-03-03T17:49:56.329Z,96727.07
2023-03-03T17:52:32.614Z,96718.91
2023-03-03T17:55:26.476Z,96717.26
2023-03-03T17:58:12.236Z,96713.47
2023-03-03T18:01:07.231Z,96714.27
2023-03-03T18:03:37.721Z,96705.30
2023-03-03T18:06:25.652Z,96715.08
2023-03-03T18:12:13.966Z,96718.05
2023-03-03T18:14:55.198Z,96718.34
2023-03-03T18:17:42.818Z,96726.22
2023-03-03T18:20:36.131Z,96724.88
2023-03-03T18:23:17.394Z,96727.87
2023-03-03T18:25:59.321Z,96719.96
2023-03-03T18:28:47.931Z,96720.80
2023-03-03T18:31:22.806Z,96715.87
2023-03-03T18:34:13.331Z,96707.45
2023-03-03T18:37:05.996Z,96703.92
2023-03-03T18:39:47.915Z,96706.91
2023-03-03T18:42:41.369Z,96701.47
2023-03-03T18:45:27.322Z,96698.48
2023-03-03T18:48:15.603Z,96697.67
2023-03-03T18:50:46.499Z,96704.19
2023-03-03T18:53:19.085Z,96700.92
2023-03-03T18:55:53.743Z,96694.13
2023-03-03T18:58:35.190Z,96696.84
2023-03-03T19:01:30.377Z,96696.59
2023-03-03T19:04:21.259Z,96698.47
2023-03-03T19:06:58.377Z,96708.55
2023-03-03T19:09:53.245Z,96710.20
2023-03-03T19:12:24.808Z,96709.11
2023-03-03T19:14:54.960Z,96699.30
2023-03-03T19:17:30.628Z,96708.30
2023-03-03T19:20:13.202Z,96703.94
2023-03-03T19:22:48.907Z,96702.31
2023-03-03T19:25:26.594Z,96690.33
2023-03-03T19:28:22.174Z,96678.89
2023-03-03T19:31:06.297Z,96679.18
2023-03-03T19:34:00.524Z,96688.41
2023-03-03T19:37:08.196Z,96690.06
2023-03-03T19:39:48.804Z,96690.59
2023-03-03T19:42:49.051Z,96685.98
2023-03-03T19:45:21.732Z,96682.97
2023-03-03T19:51:29.962Z,96672.38
2023-03-03T19:54:38.496Z,96683.52
2023-03-03T19:57:01.540Z,96683.27
2023-03-03T19:59:51.261Z,96690.33
2023-03-03T20:08:23.080Z,96697.69
2023-03-03T20:11:13.974Z,96689.23
2023-03-03T20:13:58.327Z,96692.50
2023-03-03T20:16:31.210Z,96693.31
2023-03-03T20:19:15.672Z,96682.72
2023-03-03T20:22:12.869Z,96682.98
2023-03-03T20:25:01.829Z,96690.07
2023-03-03T20:27:45.825Z,96689.23
2023-03-03T20:30:49.242Z,96683.78
2023-03-03T20:33:21.793Z,96691.43
2023-03-03T20:36:02.911Z,96698.23
2023-03-03T20:38:35.681Z,96690.88
2023-03-03T20:41:18.520Z,96693.31
2023-03-03T20:44:09.044Z,96693.61
2023-03-03T20:46:41.814Z,96693.61
2023-03-03T20:49:20.101Z,96691.14
2023-03-03T20:51:52.655Z,96689.78
2023-03-03T20:54:25.304Z,96691.14
2023-03-03T20:57:10.088Z,96685.14
2023-03-03T20:59:48.967Z,96691.41
2023-03-03T21:02:30.802Z,96688.97
2023-03-03T21:05:12.443Z,96696.03
2023-03-03T21:07:53.702Z,96691.95
2023-03-03T21:10:26.198Z,96694.13
2023-03-03T21:13:00.216Z,96695.23
2023-03-03T21:15:35.998Z,96693.61
2023-03-03T21:18:08.668Z,96701.77
2023-03-03T21:20:38.747Z,96713.73
2023-03-03T21:23:12.522Z,96721.34
2023-03-03T21:26:09.210Z,96719.73
2023-03-03T21:28:39.151Z,96725.44
2023-03-03T21:31:16.649Z,96728.45
2023-03-03T21:33:53.899Z,96728.70
2023-03-03T21:36:25.272Z,96722.16
2023-03-03T21:38:55.510Z,96733.05
2023-03-03T21:41:25.540Z,96731.17
2023-03-03T21:43:55.633Z,96705.56
2023-03-03T21:46:26.293Z,96723.01
2023-03-03T21:48:56.913Z,96728.45
2023-03-03T21:51:28.255Z,96728.97
2023-03-03T21:53:59.052Z,96729.81
2023-03-03T21:56:29.148Z,96734.16
2023-03-03T21:59:00.090Z,96733.34
2023-03-03T22:01:31.267Z,96737.43
2023-03-03T22:04:01.219Z,96740.16
2023-03-03T22:06:31.411Z,96742.33
2023-03-03T22:09:01.284Z,96747.48
2023-03-03T22:11:31.257Z,96743.14
2023-03-03T22:14:01.308Z,96743.40
2023-03-03T22:16:31.199Z,96738.80
2023-03-03T22:19:02.786Z,96743.69
2023-03-03T22:21:32.825Z,96749.66
2023-03-03T22:24:02.669Z,96748.30
2023-03-03T22:26:32.597Z,96749.40
2023-03-03T22:29:02.453Z,96761.10
2023-03-03T22:31:32.690Z,96770.92
2023-03-03T22:34:02.692Z,96772.55
2023-03-03T22:36:32.653Z,96771.99
2023-03-03T22:39:02.665Z,96776.41
2023-03-03T22:41:32.601Z,96777.22
2023-03-03T22:44:02.509Z,96776.41
2023-03-03T22:46:32.545Z,96777.22
2023-03-03T22:49:02.573Z,96786.20
2023-03-03T22:51:32.469Z,96793.27
2023-03-03T22:54:05.417Z,96791.09
2023-03-03T22:56:35.624Z,96791.09
2023-03-03T22:59:05.466Z,96801.44
2023-03-03T23:01:35.309Z,96806.34
2023-03-03T23:04:05.209Z,96804.72
2023-03-03T23:06:35.171Z,96803.36
2023-03-03T23:09:05.040Z,96804.42
2023-03-03T23:11:35.020Z,96811.53
2023-03-03T23:14:04.910Z,96812.59
2023-03-03T23:16:34.866Z,96813.44
2023-03-03T23:19:04.927Z,96814.52
2023-03-03T23:21:34.762Z,96812.08
2023-03-03T23:24:04.678Z,96816.69
2023-03-03T23:26:34.629Z,96818.86
2023-03-03T23:29:04.518Z,96822.13
2023-03-03T23:31:34.571Z,96822.43
2023-03-03T23:34:04.533Z,96829.23
2023-03-03T23:36:34.468Z,96823.79
2023-03-03T23:39:04.454Z,96825.67
2023-03-03T23:41:34.290Z,96830.31
2023-03-03T23:44:04.157Z,96829.50
2023-03-03T23:46:34.182Z,96830.86
2023-03-03T23:49:04.112Z,96828.39
2023-03-03T23:51:33.985Z,96833.03
2023-03-03T23:54:03.859Z,96838.48
2023-03-03T23:56:33.725Z,96842.31
2023-03-03T23:59:03.581Z,96846.66
